Flight Track Log - Related Links

Times and Time Zones

All times are in EDT time to prevent confusion due to time zone crossing. See the DAL6201 flight status page for this flight to view local times or setup timezone preferences in your user account.

Time Position Orientation Groundspeed Altitude Reporting Facility
EDT Latitude Longitude Course Direction KTS MPH feet Rate Location/Type
Fri 07:30:34 PM 40.5525 -80.2661 74° East 248 285 4,000  Level Cleveland Center
Fri 07:31:34 PM 40.5731 -80.1594 76° East 278 320 4,900 700 Climbing Cleveland Center
Fri 07:32:34 PM 40.5808 -80.0556 84° East 290 334 5,400 1,850 Climbing Cleveland Center
Fri 07:33:34 PM 40.5947 -79.9269 82° East 304 350 8,600 3,000 Climbing Cleveland Center
Fri 07:34:34 PM 40.6067 -79.8064 83° East 318 366 11,400 2,650 Climbing Cleveland Center
Fri 07:35:00 PM 40.5501 -79.3829 80° East  Level Estimated
Fri 07:35:34 PM 40.6181 -79.6806 83° East 331 381 13,900  Level Cleveland Center
Fri 07:36:00 PM 40.5796 -79.2460 74° East  Level FlightAware Approximate
Fri 07:36:34 PM 40.6294 -79.5544 83° East 343 395 15,500  Level Cleveland Center
Fri 07:37:34 PM 40.6469 -79.4172 80° East 360 414 17,300 1,900 Climbing Cleveland Center
Fri 07:38:34 PM 40.6747 -79.2828 75° East 371 427 19,300 1,950 Climbing Cleveland Center
Fri 07:39:34 PM 40.7000 -79.1397 77° East 385 443 21,200 1,700 Climbing Cleveland Center
Fri 07:40:34 PM 40.7253 -78.9914 77° East 396 456 22,700 1,400 Climbing Cleveland Center
Fri 07:41:34 PM 40.7439 -78.8375 81° East 413 475 24,000 1,400 Climbing Cleveland Center
Fri 07:42:34 PM 40.7642 -78.6806 80° East 423 487 25,500 1,215 Climbing Cleveland Center
Fri 07:44:17 PM 40.8033 -78.3958 80° East 466 536 27,300 988 Climbing New York Center
Fri 07:45:18 PM 40.8264 -78.2311 79° East 466 536 28,200 836 Climbing New York Center
Fri 07:46:19 PM 40.8492 -78.0633 80° East 466 536 29,000 397 Climbing New York Center
Fri 07:47:19 PM 40.8700 -77.8925 81° East 466 536 29,000  Level New York Center
Fri 07:48:17 PM 40.8906 -77.7244 81° East 466 536 29,000 -303 Level New York Center
Fri 07:49:18 PM 40.9147 -77.5594 79° East 461 531 28,400 -1,100 Descending New York Center
Fri 07:50:17 PM 40.9342 -77.3992 81° East 455 524 26,800 -1,563 Descending New York Center
Fri 07:51:17 PM 40.9531 -77.2444 81° East 438 504 25,300 -1,438 Descending New York Center
Fri 07:52:18 PM 40.9700 -77.0864 82° East 438 504 23,900 -1,377 Descending New York Center
Fri 07:53:19 PM 40.9908 -76.9289 80° East 433 498 22,500 -1,261 Descending New York Center
Fri 07:54:17 PM 41.0092 -76.7767 81° East 427 491 21,400 -1,119 Descending New York Center
Fri 07:55:17 PM 41.0144 -76.6258 87° East 417 480 20,300 -1,091 Descending New York Center
Fri 07:56:18 PM 40.9794 -76.4881 109° East 397 457 19,200 -650 Descending New York Center
Fri 07:57:17 PM 40.9536 -76.3761 107° East 379 436 19,000 -450 Descending New York Center
Fri 07:58:18 PM 40.9403 -76.2183 96° East 377 434 18,300 -836 Descending New York Center
Fri 07:59:19 PM 40.9339 -76.0806 93° East 383 441 17,300 -958 Descending New York Center
Fri 08:00:17 PM 40.9272 -75.9536 94° East 388 447 16,400 -1,210 Descending New York Center
Fri 08:01:18 PM 40.8939 -75.8083 107° East 378 435 14,900 -1,500 Descending New York Center
Fri 08:02:17 PM 40.8486 -75.6925 117° Southeast 358 412 13,400 -950 Descending New York Center
Fri 08:03:18 PM 40.8031 -75.5822 119° Southeast 348 400 13,000 -198 Descending New York Center
Fri 08:04:18 PM 40.7597 -75.4694 117° Southeast 348 400 13,000 -50 Level New York Center
Fri 08:05:17 PM 40.7103 -75.3539 119° Southeast 348 400 12,900 -605 Descending New York Center
Fri 08:06:17 PM 40.6644 -75.2414 118° Southeast 348 400 11,800 -992 Descending New York Center
Fri 08:07:18 PM 40.6206 -75.1347 118° Southeast 340 391 10,900 -893 Descending New York Center
Fri 08:08:18 PM 40.5803 -75.0364 118° Southeast 340 391 10,000 -446 Descending New York Center
Fri 08:09:19 PM 40.5408 -74.9167 113° Southeast 330 380 10,000  Level New York Center
Fri 08:10:11 PM 40.5167 -74.8167 108° East 333 383 10,000  Level New York TRACON
Fri 08:11:10 PM 40.4833 -74.7000 111° Southeast 333 383 10,000  Level New York TRACON
Fri 08:12:10 PM 40.4500 -74.5833 111° Southeast 333 383 10,000  Level New York TRACON
Fri 08:13:10 PM 40.4333 -74.4667 101° East 331 381 10,000  Level New York TRACON
Fri 08:14:11 PM 40.4333 -74.3500 90° East 335 386 10,000 -446 Level New York TRACON
Fri 08:15:11 PM 40.4833 -74.2500 57° Northeast 305 351 9,100 -1,361 Descending New York TRACON
Fri 08:16:10 PM 40.5167 -74.1500 66° East 297 342 7,300 -1,815 Descending New York TRACON
Fri 08:17:10 PM 40.5667 -74.0833 45° Northeast 295 339 5,500 -1,636 Descending New York TRACON
Fri 08:18:11 PM 40.6500 -74.0500 17° North 280 322 4,000 -744 Descending New York TRACON
Fri 08:19:11 PM 40.7167 -74.0167 21° North 278 320 4,000 -252 Level New York TRACON
Fri 08:20:10 PM 40.8000 -73.9833 17° North 283 326 3,500 -504 Descending New York TRACON
Fri 08:21:10 PM 40.8500 -73.9333 37° Northeast 241 277 3,000 -522 Descending New York TRACON
Fri 08:22:05 PM 40.8833 -73.8667 57° Northeast 203 234 2,500 -744 Descending New York TRACON
Fri 08:23:11 PM 40.8667 -73.8167 114° Southeast 169 194 1,500 -700 Descending New York TRACON
Fri 08:24:05 PM 40.8333 -73.8333 201° Southwest 123 142 1,100 -555 Descending New York TRACON
Fri 08:25:10 PM 40.8000 -73.8500 201° Southwest 128 147 400 -646 Descending New York TRACON
Fri 08:27:00 PM 40.7667 -73.8667 180° South  Level FlightAware Approximate
Fri 08:34:00 PM 40.7772 -73.8726 180° South  Level Estimated

Login

Don't have an account? Register now (free) for customized features, flight alerts, and more!